VISIB

Not for real navigation. The accuracy of this data is not assured See disclaimer for more information



ICAO NAME COUNTRY WIND Kt GUST Kt VIS m TEMP/DEW C BARO METAR
LKVO 1 0 100 -2/-3 30.33 LKVO 170800Z 30001KT 0100 FG VV004 M02/M03 Q1027
ESMT Halmstad Swedish Air Force Bas Sweden 5 0 150 4/3 30.15 ESMT 170850Z AUTO 24005KT 0150 R01/0400N R19/0375N FG VV001 04/03 Q1021
ESGG Goteborg / Landvetter Sweden 7 0 150 3/2 30.09 ESGG 170850Z 20007KT 0150 R03/0350N R21/0325N FG VV002 03/02 Q1019 R21/29//95
LHBP Budapest / Ferihegy Hungary 2 0 150 -1/-1 30.39 LHBP 170830Z VRB02KT 0150 R31L/0200N R31R/0200N FZFG VV001 M01/M01 Q1029 BECMG 1500 BR NSC
LPPT Lisboa / Portela Portugal 2 0 200 8/8 30.15 LPPT 170830Z VRB02KT 0200 R21/0250 FG VV001 08/08 Q1021

Show more